createdAt,value
2019-02-26T00:03:49.934Z,31.86
2019-02-26T00:09:01.212Z,35.61
2019-02-26T00:14:07.668Z,51.88
2019-02-26T00:19:16.766Z,35.08
2019-02-26T00:24:25.913Z,32.41
2019-02-26T00:29:34.964Z,31.92
2019-02-26T00:34:44.044Z,31.20
2019-02-26T00:39:54.146Z,34.88
2019-02-26T00:45:03.349Z,35.52
2019-02-26T00:50:11.946Z,36.65
2019-02-26T00:55:23.139Z,35.17
2019-02-26T01:00:28.507Z,33.28
2019-02-26T01:05:38.205Z,52.49
2019-02-26T01:10:45.845Z,36.26
2019-02-26T01:15:53.799Z,31.80
2019-02-26T01:21:04.322Z,35.58
2019-02-26T01:26:12.227Z,31.97
2019-02-26T01:31:22.248Z,34.69
2019-02-26T01:36:28.895Z,33.32
2019-02-26T01:41:41.339Z,33.29
2019-02-26T01:46:46.802Z,31.92
2019-02-26T01:51:55.902Z,51.53
2019-02-26T01:57:08.635Z,37.90
2019-02-26T02:02:17.340Z,33.57
2019-02-26T02:07:24.255Z,31.13
2019-02-26T02:12:32.433Z,32.05
2019-02-26T02:17:40.141Z,30.91
2019-02-26T02:22:48.381Z,34.11
2019-02-26T02:27:59.343Z,32.28
2019-02-26T02:33:06.099Z,51.61
2019-02-26T02:38:19.554Z,51.27
2019-02-26T02:43:23.875Z,52.30
2019-02-26T02:48:33.052Z,34.28
2019-02-26T02:53:45.008Z,37.15
2019-02-26T02:58:51.596Z,52.99
2019-02-26T03:04:01.127Z,37.03
2019-02-26T03:09:09.225Z,52.75
2019-02-26T03:14:18.599Z,53.01
2019-02-26T03:19:25.457Z,35.34
2019-02-26T03:24:35.941Z,33.37
2019-02-26T03:29:45.036Z,32.02
2019-02-26T03:34:51.906Z,34.51
2019-02-26T03:40:03.704Z,36.52
2019-02-26T03:45:09.673Z,52.31
2019-02-26T03:50:18.999Z,52.79
2019-02-26T03:55:30.769Z,53.67
2019-02-26T04:00:38.639Z,33.21
2019-02-26T04:05:45.313Z,31.53
2019-02-26T04:10:55.933Z,34.39
2019-02-26T04:16:04.611Z,36.25
2019-02-26T04:21:14.797Z,35.96
2019-02-26T04:26:21.090Z,37.72
2019-02-26T04:31:29.327Z,38.42
2019-02-26T04:36:41.613Z,51.32
2019-02-26T04:41:47.115Z,35.06
2019-02-26T04:46:57.168Z,52.08
2019-02-26T04:52:05.618Z,34.19
2019-02-26T04:57:13.453Z,34.09
2019-02-26T05:02:22.711Z,32.96
2019-02-26T05:07:32.885Z,36.16
2019-02-26T05:12:40.439Z,34.32
2019-02-26T05:17:49.536Z,36.63
2019-02-26T05:23:00.995Z,37.35
2019-02-26T05:28:09.506Z,38.96
2019-02-26T05:33:15.951Z,51.84
2019-02-26T05:38:26.568Z,51.27
2019-02-26T05:43:34.077Z,38.20
2019-02-26T05:48:43.867Z,52.61
2019-02-26T05:53:51.586Z,53.02
2019-02-26T05:59:04.282Z,34.10
2019-02-26T06:04:10.113Z,32.26
2019-02-26T06:09:20.115Z,34.89
2019-02-26T06:14:27.566Z,33.42
2019-02-26T06:19:37.201Z,36.52
2019-02-26T06:24:44.058Z,37.97
2019-02-26T06:29:55.423Z,37.25
2019-02-26T06:35:01.768Z,51.24
2019-02-26T06:40:10.953Z,36.30
2019-02-26T06:45:20.105Z,52.32
2019-02-26T06:50:29.223Z,40.09
2019-02-26T06:55:38.381Z,32.91
2019-02-26T07:00:48.193Z,35.92
2019-02-26T07:05:56.136Z,34.68
2019-02-26T07:11:07.182Z,36.12
2019-02-26T07:16:14.009Z,34.44
2019-02-26T07:21:23.075Z,35.00
2019-02-26T07:26:32.231Z,37.20
2019-02-26T07:31:41.323Z,36.06
2019-02-26T07:36:52.438Z,37.44
2019-02-26T07:41:59.197Z,36.91
2019-02-26T07:47:08.871Z,32.97
2019-02-26T07:52:17.390Z,37.46
2019-02-26T07:57:27.659Z,52.55
2019-02-26T08:02:36.806Z,40.60
2019-02-26T08:07:45.877Z,38.18
2019-02-26T08:12:52.868Z,37.56
2019-02-26T08:18:03.479Z,54.20
2019-02-26T08:23:10.704Z,57.79
2019-02-26T08:28:20.872Z,38.85
2019-02-26T08:33:28.862Z,34.45
2019-02-26T08:38:38.041Z,55.68
2019-02-26T08:43:49.205Z,37.30
2019-02-26T08:48:55.878Z,36.55
2019-02-26T08:54:04.936Z,55.61
2019-02-26T08:59:16.048Z,36.27
2019-02-26T09:04:23.887Z,38.21
2019-02-26T09:09:32.816Z,38.24
2019-02-26T09:14:42.387Z,39.69
2019-02-26T09:19:50.860Z,57.13
2019-02-26T09:25:01.463Z,32.59
2019-02-26T09:30:08.465Z,33.58
2019-02-26T09:35:30.476Z,35.16
2019-02-26T09:40:17.131Z,36.09
2019-02-26T09:45:26.891Z,40.19
2019-02-26T09:50:33.288Z,39.39
2019-02-26T09:55:42.454Z,40.41
2019-02-26T10:00:53.857Z,92.07
2019-02-26T10:06:00.367Z,35.85
2019-02-26T10:11:09.496Z,68.82
2019-02-26T10:16:21.067Z,80.32
2019-02-26T10:21:27.529Z,82.50
2019-02-26T10:26:38.598Z,39.36
2019-02-26T10:31:45.268Z,90.75
2019-02-26T10:36:54.495Z,88.14
2019-02-26T10:42:03.805Z,92.41
2019-02-26T10:47:12.927Z,36.18
2019-02-26T10:52:23.889Z,38.66
2019-02-26T10:57:31.064Z,104.17
2019-02-26T11:02:40.689Z,100.75
2019-02-26T11:07:48.190Z,105.48
2019-02-26T11:12:59.432Z,107.71
2019-02-26T11:18:11.516Z,114.01
2019-02-26T11:23:08.972Z,117.97
2019-02-26T11:28:16.315Z,126.05
2019-02-26T11:33:25.646Z,125.09
2019-02-26T11:38:39.065Z,142.49
2019-02-26T11:43:44.506Z,127.75
2019-02-26T11:48:55.451Z,134.29
2019-02-26T11:54:04.791Z,129.71
2019-02-26T11:59:12.615Z,125.04
2019-02-26T12:04:19.873Z,89.15
2019-02-26T12:09:32.230Z,123.61
2019-02-26T12:14:40.201Z,148.58
2019-02-26T12:19:48.470Z,146.01
2019-02-26T12:24:55.971Z,166.69
2019-02-26T12:30:03.634Z,185.30
2019-02-26T12:35:14.915Z,192.04
2019-02-26T12:40:23.356Z,195.52
2019-02-26T12:45:31.789Z,196.61
2019-02-26T12:50:40.443Z,212.26
2019-02-26T12:55:46.212Z,168.56
2019-02-26T13:00:55.676Z,135.18
2019-02-26T13:06:05.959Z,155.53
2019-02-26T13:11:14.153Z,124.99
2019-02-26T13:16:22.113Z,123.01
2019-02-26T13:21:31.217Z,124.51
2019-02-26T13:26:43.466Z,256.45
2019-02-26T13:31:56.231Z,104.13
2019-02-26T13:36:57.733Z,118.28
2019-02-26T13:42:13.105Z,121.03
2019-02-26T13:47:15.510Z,106.99
2019-02-26T13:52:24.605Z,107.87
2019-02-26T13:57:33.906Z,114.50
2019-02-26T14:02:43.057Z,150.86
2019-02-26T14:07:52.513Z,206.30
2019-02-26T14:13:01.604Z,168.27
2019-02-26T14:18:10.934Z,110.61
2019-02-26T14:23:20.145Z,171.89
2019-02-26T14:28:32.274Z,785.27
2019-02-26T14:33:31.307Z,803.77
2019-02-26T14:38:40.469Z,801.00
2019-02-26T14:43:49.666Z,778.03
2019-02-26T14:48:58.793Z,794.68
2019-02-26T14:54:07.900Z,792.21
2019-02-26T14:59:17.064Z,774.43
2019-02-26T15:04:26.175Z,771.70
2019-02-26T15:09:35.332Z,755.78
2019-02-26T15:14:44.569Z,772.25
2019-02-26T15:19:53.700Z,790.42
2019-02-26T15:25:02.801Z,789.90
2019-02-26T15:30:11.962Z,786.70
2019-02-26T15:35:21.106Z,207.86
2019-02-26T15:40:30.270Z,579.84
2019-02-26T15:45:39.363Z,677.35
2019-02-26T15:50:48.578Z,643.06
2019-02-26T15:55:59.444Z,582.30
2019-02-26T16:01:06.350Z,509.73
2019-02-26T16:06:15.476Z,124.34
2019-02-26T16:11:24.651Z,252.73
2019-02-26T16:16:33.788Z,426.50
2019-02-26T16:21:42.990Z,119.57
2019-02-26T16:26:52.094Z,249.73
2019-02-26T16:32:02.689Z,262.43
2019-02-26T16:37:10.003Z,111.41
2019-02-26T16:42:17.700Z,127.74
2019-02-26T16:47:26.779Z,111.20
2019-02-26T16:52:36.025Z,204.31
2019-02-26T16:57:45.139Z,232.22
2019-02-26T17:02:54.344Z,229.69
2019-02-26T17:08:03.481Z,320.07
2019-02-26T17:13:12.632Z,228.86
2019-02-26T17:18:21.726Z,222.93
2019-02-26T17:23:30.866Z,214.71
2019-02-26T17:28:43.557Z,223.24
2019-02-26T17:33:48.744Z,216.55
2019-02-26T17:38:57.804Z,217.09
2019-02-26T17:44:07.131Z,211.07
2019-02-26T17:49:17.972Z,208.24
2019-02-26T17:54:25.069Z,198.41
2019-02-26T17:59:34.124Z,201.07
2019-02-26T18:04:43.313Z,196.25
2019-02-26T18:09:52.360Z,195.36
2019-02-26T18:15:01.688Z,105.81
2019-02-26T18:20:10.767Z,163.07
2019-02-26T18:25:19.886Z,105.65
2019-02-26T18:30:28.975Z,149.42
2019-02-26T18:35:38.141Z,168.16
2019-02-26T18:40:47.201Z,195.74
2019-02-26T18:46:00.625Z,101.45
2019-02-26T18:51:05.144Z,162.04
2019-02-26T18:56:14.313Z,176.44
2019-02-26T19:01:23.440Z,165.08
2019-02-26T19:06:32.544Z,87.27
2019-02-26T19:11:41.632Z,130.27
2019-02-26T19:16:54.043Z,128.53
2019-02-26T19:21:59.403Z,76.01
2019-02-26T19:27:08.546Z,113.10
2019-02-26T19:32:17.655Z,128.26
2019-02-26T19:37:27.019Z,128.00
2019-02-26T19:42:36.110Z,145.51
2019-02-26T19:47:45.323Z,132.32
2019-02-26T19:52:57.192Z,140.28
2019-02-26T19:58:06.384Z,123.37
2019-02-26T20:03:11.690Z,147.17
2019-02-26T20:08:20.791Z,82.94
2019-02-26T20:13:31.677Z,113.28
2019-02-26T20:18:38.630Z,125.92
2019-02-26T20:23:47.716Z,131.68
2019-02-26T20:28:56.825Z,134.13
2019-02-26T20:34:06.656Z,134.19
2019-02-26T20:39:14.575Z,85.81
2019-02-26T20:44:23.638Z,119.26
2019-02-26T20:49:32.937Z,77.95
2019-02-26T20:54:44.462Z,116.46
2019-02-26T20:59:51.974Z,125.15
2019-02-26T21:04:59.498Z,131.86
2019-02-26T21:10:09.031Z,129.58
2019-02-26T21:15:18.077Z,125.95
2019-02-26T21:20:27.261Z,128.94
2019-02-26T21:25:36.345Z,127.82
2019-02-26T21:30:45.809Z,126.73
2019-02-26T21:35:54.356Z,124.61
2019-02-26T21:41:02.754Z,38.94
2019-02-26T21:46:11.835Z,37.25
2019-02-26T21:51:21.002Z,99.42
2019-02-26T21:56:30.045Z,110.01
2019-02-26T22:01:41.193Z,114.24
2019-02-26T22:06:47.891Z,38.60
2019-02-26T22:11:56.994Z,102.83
2019-02-26T22:17:06.168Z,110.71
2019-02-26T22:22:15.436Z,113.05
2019-02-26T22:27:24.502Z,116.89
2019-02-26T22:32:34.964Z,118.45
2019-02-26T22:37:42.205Z,114.56
2019-02-26T22:42:51.429Z,110.25
2019-02-26T22:48:00.473Z,107.42
2019-02-26T22:53:09.701Z,111.00
2019-02-26T22:58:18.755Z,109.57
2019-02-26T23:03:27.904Z,107.81
2019-02-26T23:08:36.967Z,37.20
2019-02-26T23:13:46.202Z,89.32
2019-02-26T23:18:55.262Z,101.84
2019-02-26T23:24:04.414Z,37.59
2019-02-26T23:29:13.489Z,114.03
2019-02-26T23:34:22.731Z,37.01
2019-02-26T23:39:31.798Z,76.46
2019-02-26T23:44:42.768Z,90.69
2019-02-26T23:49:41.872Z,34.95
2019-02-26T23:54:51.257Z,36.15
